createdAt,value
2017-11-17T00:02:19.329Z,8.50
2017-11-17T00:04:46.292Z,8.50
2017-11-17T00:07:12.482Z,8.50
2017-11-17T00:09:38.749Z,8.40
2017-11-17T00:12:04.953Z,8.50
2017-11-17T00:14:31.917Z,8.40
2017-11-17T00:16:58.107Z,8.40
2017-11-17T00:19:24.325Z,8.40
2017-11-17T00:21:50.633Z,8.50
2017-11-17T00:24:16.867Z,8.50
2017-11-17T00:26:43.047Z,8.50
2017-11-17T00:29:10.017Z,8.50
2017-11-17T00:31:36.215Z,8.50
2017-11-17T00:34:03.166Z,8.60
2017-11-17T00:36:30.112Z,8.70
2017-11-17T00:38:57.094Z,8.70
2017-11-17T00:41:23.298Z,8.60
2017-11-17T00:43:49.483Z,8.60
2017-11-17T00:46:15.805Z,8.60
2017-11-17T00:48:41.989Z,8.60
2017-11-17T00:51:08.203Z,8.60
2017-11-17T00:53:34.406Z,8.60
2017-11-17T00:56:01.364Z,8.60
2017-11-17T00:58:27.572Z,8.50
2017-11-17T01:00:53.811Z,8.60
2017-11-17T01:03:20.024Z,8.70
2017-11-17T01:05:46.238Z,8.60
2017-11-17T01:08:12.478Z,8.60
2017-11-17T01:10:38.798Z,8.60
2017-11-17T01:13:04.982Z,8.60
2017-11-17T01:15:31.190Z,8.60
2017-11-17T01:17:58.117Z,8.60
2017-11-17T01:20:24.333Z,8.60
2017-11-17T01:22:50.514Z,8.70
2017-11-17T01:25:16.722Z,8.70
2017-11-17T01:27:43.647Z,8.80
2017-11-17T01:30:09.873Z,8.80
2017-11-17T01:32:36.063Z,8.80
2017-11-17T01:35:02.304Z,8.80
2017-11-17T01:37:28.529Z,8.90
2017-11-17T01:39:54.758Z,8.90
2017-11-17T01:42:20.966Z,8.90
2017-11-17T01:44:47.215Z,8.80
2017-11-17T01:47:13.413Z,8.90
2017-11-17T01:49:39.639Z,9.00
2017-11-17T01:52:05.849Z,8.90
2017-11-17T01:54:32.826Z,8.90
2017-11-17T01:56:59.048Z,8.90
2017-11-17T01:59:25.278Z,8.90
2017-11-17T02:01:51.501Z,8.90
2017-11-17T02:04:17.749Z,8.80
2017-11-17T02:06:44.013Z,8.70
2017-11-17T02:09:10.252Z,8.70
2017-11-17T02:11:37.311Z,8.70
2017-11-17T02:14:04.277Z,8.50
2017-11-17T02:16:30.483Z,8.50
2017-11-17T02:18:57.450Z,8.50
2017-11-17T02:21:23.718Z,8.50
2017-11-17T02:23:49.970Z,8.50
2017-11-17T02:26:16.178Z,8.50
2017-11-17T02:28:42.406Z,8.50
2017-11-17T02:31:08.644Z,8.50
2017-11-17T02:33:34.869Z,8.50
2017-11-17T02:36:01.111Z,8.50
2017-11-17T02:38:27.372Z,8.60
2017-11-17T02:40:53.610Z,8.60
2017-11-17T02:43:19.829Z,8.50
2017-11-17T02:45:46.069Z,8.50
2017-11-17T02:48:12.286Z,8.50
2017-11-17T02:50:38.521Z,8.50
2017-11-17T02:53:04.743Z,8.40
2017-11-17T02:55:30.974Z,8.40
2017-11-17T02:57:57.182Z,8.30
2017-11-17T03:00:24.153Z,8.30
2017-11-17T03:02:50.372Z,8.30
2017-11-17T03:05:16.623Z,8.30
2017-11-17T03:07:42.858Z,8.30
2017-11-17T03:10:09.083Z,8.30
2017-11-17T03:12:35.282Z,8.20
2017-11-17T03:15:01.534Z,8.20
2017-11-17T03:17:27.765Z,8.20
2017-11-17T03:19:54.000Z,8.10
2017-11-17T03:22:20.210Z,8.10
2017-11-17T03:24:46.441Z,8.10
2017-11-17T03:27:12.666Z,8.10
2017-11-17T03:29:38.898Z,8.10
2017-11-17T03:32:05.158Z,8.10
2017-11-17T03:34:31.399Z,8.00
2017-11-17T03:36:57.633Z,7.90
2017-11-17T03:39:23.889Z,7.80
2017-11-17T03:41:50.834Z,7.70
2017-11-17T03:44:17.850Z,7.70
2017-11-17T03:46:44.058Z,7.60
2017-11-17T03:49:10.302Z,7.70
2017-11-17T03:51:36.534Z,7.60
2017-11-17T03:54:02.761Z,7.50
2017-11-17T03:56:28.981Z,7.40
2017-11-17T03:58:55.950Z,7.30
2017-11-17T04:01:22.899Z,7.30
2017-11-17T04:03:49.894Z,7.30
2017-11-17T04:06:16.097Z,7.20
2017-11-17T04:08:42.351Z,7.20
2017-11-17T04:11:08.555Z,7.20
2017-11-17T04:13:34.799Z,7.10
2017-11-17T04:16:01.010Z,7.10
2017-11-17T04:18:27.318Z,7.10
2017-11-17T04:20:54.267Z,7.20
2017-11-17T04:23:21.240Z,7.20
2017-11-17T04:25:47.447Z,7.20
2017-11-17T04:28:13.681Z,7.20
2017-11-17T04:30:40.611Z,7.30
2017-11-17T04:33:07.590Z,7.30
2017-11-17T04:35:33.802Z,7.30
2017-11-17T04:38:00.042Z,7.30
2017-11-17T04:40:26.247Z,7.30
2017-11-17T04:42:53.198Z,7.20
2017-11-17T04:45:19.415Z,7.20
2017-11-17T04:47:46.386Z,7.20
2017-11-17T04:50:12.645Z,7.10
2017-11-17T04:52:38.925Z,7.10
2017-11-17T04:55:05.853Z,7.10
2017-11-17T04:57:32.086Z,7.10
2017-11-17T04:59:59.292Z,7.10
2017-11-17T05:02:25.546Z,7.10
2017-11-17T05:04:51.751Z,7.20
2017-11-17T05:07:17.980Z,7.00
2017-11-17T05:09:44.211Z,6.90
2017-11-17T05:12:10.549Z,6.80
2017-11-17T05:14:36.751Z,6.90
2017-11-17T05:17:02.958Z,6.90
2017-11-17T05:19:29.158Z,6.80
2017-11-17T05:21:56.129Z,6.90
2017-11-17T05:24:22.322Z,6.90
2017-11-17T05:26:48.509Z,6.90
2017-11-17T05:29:14.717Z,6.90
2017-11-17T05:31:40.898Z,6.90
2017-11-17T05:34:07.109Z,7.00
2017-11-17T05:36:33.331Z,7.00
2017-11-17T05:38:59.602Z,7.10
2017-11-17T05:41:26.606Z,7.10
2017-11-17T05:43:52.829Z,7.10
2017-11-17T05:46:19.029Z,7.20
2017-11-17T05:48:45.301Z,7.30
2017-11-17T05:51:11.511Z,7.30
2017-11-17T05:53:37.725Z,7.30
2017-11-17T05:56:04.686Z,7.30
2017-11-17T05:58:30.902Z,7.30
2017-11-17T06:00:57.098Z,7.30
2017-11-17T06:03:24.058Z,6.90
2017-11-17T06:05:50.362Z,6.80
2017-11-17T06:08:32.621Z,6.90
2017-11-17T06:10:58.813Z,6.90
2017-11-17T06:13:25.767Z,7.10
2017-11-17T06:15:51.960Z,7.00
2017-11-17T06:18:18.302Z,7.20
2017-11-17T06:20:45.269Z,7.20
2017-11-17T06:23:11.477Z,7.10
2017-11-17T06:25:38.414Z,7.20
2017-11-17T06:28:05.018Z,7.20
2017-11-17T06:30:31.303Z,6.80
2017-11-17T06:32:57.525Z,6.70
2017-11-17T06:35:24.459Z,6.70
2017-11-17T06:37:51.438Z,6.80
2017-11-17T06:40:17.641Z,6.80
2017-11-17T06:42:44.590Z,6.70
2017-11-17T06:45:11.530Z,6.80
2017-11-17T06:47:38.477Z,6.70
2017-11-17T06:50:05.837Z,6.70
2017-11-17T06:52:32.806Z,6.70
2017-11-17T06:54:58.994Z,6.70
2017-11-17T06:57:25.937Z,6.20
2017-11-17T06:59:52.129Z,6.20
2017-11-17T07:02:18.381Z,6.00
2017-11-17T07:04:44.598Z,6.00
2017-11-17T07:07:10.817Z,6.00
2017-11-17T07:09:37.014Z,6.00
2017-11-17T07:12:03.227Z,6.00
2017-11-17T07:14:30.162Z,5.90
2017-11-17T07:16:58.214Z,5.90
2017-11-17T07:19:24.402Z,5.90
2017-11-17T07:21:50.606Z,5.90
2017-11-17T07:24:16.834Z,5.90
2017-11-17T07:26:43.059Z,5.90
2017-11-17T07:29:09.256Z,5.90
2017-11-17T07:31:36.209Z,5.90
2017-11-17T07:34:03.142Z,6.00
2017-11-17T07:36:29.366Z,6.00
2017-11-17T07:38:55.558Z,6.00
2017-11-17T07:41:21.761Z,6.10
2017-11-17T07:43:47.946Z,6.10
2017-11-17T07:46:14.149Z,6.00
2017-11-17T07:48:40.466Z,5.90
2017-11-17T07:51:06.686Z,5.90
2017-11-17T07:53:32.872Z,6.00
2017-11-17T07:55:59.062Z,6.10
2017-11-17T07:58:25.269Z,6.10
2017-11-17T08:00:51.455Z,6.20
2017-11-17T08:03:17.670Z,6.30
2017-11-17T08:05:43.943Z,6.50
2017-11-17T08:08:10.158Z,6.50
2017-11-17T08:10:37.087Z,6.60
2017-11-17T08:13:04.050Z,6.70
2017-11-17T08:15:30.241Z,6.60
2017-11-17T08:18:18.425Z,6.60
2017-11-17T08:20:44.642Z,6.70
2017-11-17T08:23:11.626Z,6.50
2017-11-17T08:25:37.801Z,6.50
2017-11-17T08:28:04.036Z,6.50
2017-11-17T08:30:31.046Z,6.50
2017-11-17T08:32:57.255Z,6.50
2017-11-17T08:35:23.459Z,6.60
2017-11-17T08:37:49.797Z,6.50
2017-11-17T08:40:15.997Z,6.60
2017-11-17T08:42:42.943Z,6.40
2017-11-17T08:45:09.942Z,6.50
2017-11-17T08:47:36.183Z,6.50
2017-11-17T08:50:02.391Z,6.60
2017-11-17T08:52:28.606Z,6.70
2017-11-17T08:54:54.802Z,6.60
2017-11-17T08:57:21.915Z,6.80
2017-11-17T08:59:48.142Z,6.70
2017-11-17T09:02:14.378Z,6.90
2017-11-17T09:04:41.313Z,7.00
2017-11-17T09:07:07.583Z,7.00
2017-11-17T09:09:34.501Z,7.00
2017-11-17T09:12:06.022Z,7.00
2017-11-17T09:14:32.223Z,6.80
2017-11-17T09:16:58.464Z,6.70
2017-11-17T09:19:24.657Z,6.60
2017-11-17T09:21:51.606Z,6.50
2017-11-17T09:24:18.579Z,6.60
2017-11-17T09:26:44.819Z,6.60
2017-11-17T09:29:11.021Z,6.70
2017-11-17T09:31:37.233Z,7.00
2017-11-17T09:34:04.162Z,7.00
2017-11-17T09:36:30.406Z,7.00
2017-11-17T09:38:57.336Z,7.00
2017-11-17T09:41:23.542Z,7.00
2017-11-17T09:43:49.733Z,7.10
2017-11-17T09:46:15.970Z,7.20
2017-11-17T09:48:42.206Z,7.20
2017-11-17T09:51:08.450Z,7.10
2017-11-17T09:53:34.887Z,7.10
2017-11-17T09:56:01.102Z,7.10
2017-11-17T09:58:27.333Z,7.10
2017-11-17T10:00:53.510Z,7.00
2017-11-17T10:03:20.470Z,6.90
2017-11-17T10:05:46.702Z,6.80
2017-11-17T10:08:12.942Z,6.90
2017-11-17T10:10:39.155Z,7.00
2017-11-17T10:13:06.111Z,6.90
2017-11-17T10:15:32.335Z,6.90
2017-11-17T10:17:58.566Z,6.90
2017-11-17T10:20:24.767Z,7.00
2017-11-17T10:22:51.748Z,7.20
2017-11-17T10:25:17.991Z,7.20
2017-11-17T10:27:44.251Z,7.20
2017-11-17T10:30:10.458Z,7.30
2017-11-17T10:32:36.706Z,7.50
2017-11-17T10:35:02.914Z,7.70
2017-11-17T10:37:29.158Z,7.50
2017-11-17T10:39:55.374Z,7.60
2017-11-17T10:42:22.350Z,7.80
2017-11-17T10:44:48.554Z,7.70
2017-11-17T10:47:14.791Z,7.80
2017-11-17T10:49:40.994Z,7.80
2017-11-17T10:52:07.217Z,7.70
2017-11-17T10:54:33.410Z,7.80
2017-11-17T10:56:59.620Z,7.90
2017-11-17T10:59:26.554Z,7.70
2017-11-17T11:01:52.796Z,7.70
2017-11-17T11:04:19.745Z,7.80
2017-11-17T11:06:46.732Z,7.70
2017-11-17T11:09:12.940Z,7.70
2017-11-17T11:11:45.369Z,7.70
2017-11-17T11:14:11.566Z,7.70
2017-11-17T11:16:37.801Z,7.70
2017-11-17T11:19:04.017Z,7.80
2017-11-17T11:21:30.263Z,7.80
2017-11-17T11:23:56.467Z,7.70
2017-11-17T11:26:22.710Z,7.80
2017-11-17T11:28:48.933Z,7.80
2017-11-17T11:31:15.162Z,7.80
2017-11-17T11:33:41.370Z,7.80
2017-11-17T11:36:07.586Z,8.00
2017-11-17T11:38:33.806Z,8.30
2017-11-17T11:41:00.762Z,8.50
2017-11-17T11:43:26.987Z,8.50
2017-11-17T11:45:53.221Z,8.60
2017-11-17T11:48:19.466Z,8.60
2017-11-17T11:50:45.667Z,8.70
2017-11-17T11:53:12.657Z,8.80
2017-11-17T11:55:38.850Z,8.80
2017-11-17T11:58:05.082Z,9.00
2017-11-17T12:00:31.280Z,9.00
2017-11-17T12:02:58.305Z,9.30
2017-11-17T12:05:24.574Z,9.30
2017-11-17T12:07:51.530Z,10.20
2017-11-17T12:10:17.723Z,10.20
2017-11-17T12:12:43.938Z,11.10
2017-11-17T12:15:10.124Z,12.00
2017-11-17T12:17:36.326Z,12.80
2017-11-17T12:20:03.266Z,14.10
2017-11-17T12:22:30.198Z,14.10
2017-11-17T12:24:56.390Z,14.10
2017-11-17T12:27:23.343Z,14.40
2017-11-17T12:29:50.290Z,14.70
2017-11-17T12:32:16.523Z,14.70
2017-11-17T12:34:42.743Z,14.60
2017-11-17T12:37:08.966Z,14.20
2017-11-17T12:39:35.170Z,14.40
2017-11-17T12:42:01.367Z,15.20
2017-11-17T12:44:28.283Z,16.20
2017-11-17T12:46:54.502Z,16.20
2017-11-17T12:49:20.707Z,16.10
2017-11-17T12:51:46.921Z,15.50
2017-11-17T12:54:13.119Z,14.90
2017-11-17T12:56:40.071Z,14.70
2017-11-17T12:59:06.259Z,14.70
2017-11-17T13:01:32.469Z,15.10
2017-11-17T13:03:58.669Z,15.40
2017-11-17T13:06:24.879Z,15.30
2017-11-17T13:08:51.806Z,13.90
2017-11-17T13:11:18.761Z,14.40
2017-11-17T13:13:45.697Z,14.00
2017-11-17T13:16:11.880Z,13.90
2017-11-17T13:18:38.096Z,13.30
2017-11-17T13:21:04.307Z,12.10
2017-11-17T13:23:31.249Z,12.30
2017-11-17T13:25:58.171Z,13.50
2017-11-17T13:28:24.367Z,13.50
2017-11-17T13:30:50.550Z,14.20
2017-11-17T13:33:17.485Z,14.90
2017-11-17T13:35:44.426Z,14.20
2017-11-17T13:38:11.359Z,13.70
2017-11-17T13:40:38.290Z,12.60
2017-11-17T13:43:04.494Z,12.60
2017-11-17T13:45:30.687Z,12.40
2017-11-17T13:47:56.893Z,12.30
2017-11-17T13:50:23.070Z,11.70
2017-11-17T13:52:49.282Z,10.80
2017-11-17T13:55:15.458Z,10.40
2017-11-17T13:57:41.705Z,10.70
2017-11-17T14:00:08.653Z,11.40
2017-11-17T14:02:35.594Z,11.00
2017-11-17T14:05:01.787Z,11.00
2017-11-17T14:07:28.004Z,10.70
2017-11-17T14:09:54.216Z,10.50
2017-11-17T14:12:20.413Z,10.20
2017-11-17T14:14:47.339Z,10.70
2017-11-17T14:17:13.596Z,10.70
2017-11-17T14:19:39.782Z,10.60
2017-11-17T14:22:06.003Z,10.50
2017-11-17T14:24:32.221Z,10.90
2017-11-17T14:26:58.436Z,11.30
2017-11-17T14:29:24.625Z,11.10
2017-11-17T14:31:51.593Z,10.10
2017-11-17T14:34:17.915Z,10.10
2017-11-17T14:36:44.204Z,10.00
2017-11-17T14:39:11.215Z,10.30
2017-11-17T14:41:37.491Z,10.30
2017-11-17T14:44:03.686Z,10.00
2017-11-17T14:46:29.898Z,10.00
2017-11-17T14:48:56.082Z,9.90
2017-11-17T14:51:23.067Z,10.00
2017-11-17T14:53:49.252Z,10.00
2017-11-17T14:56:15.463Z,9.70
2017-11-17T14:58:42.406Z,9.40
2017-11-17T15:01:08.719Z,9.40
2017-11-17T15:03:34.970Z,9.20
2017-11-17T15:06:01.191Z,9.00
2017-11-17T15:08:27.454Z,8.90
2017-11-17T15:10:54.384Z,8.60
2017-11-17T15:13:20.623Z,8.60
2017-11-17T15:15:46.913Z,8.50
2017-11-17T15:18:13.315Z,8.40
2017-11-17T15:20:39.546Z,8.30
2017-11-17T15:23:05.779Z,8.20
2017-11-17T15:25:31.979Z,8.00
2017-11-17T15:27:58.219Z,7.90
2017-11-17T15:30:24.454Z,7.80
2017-11-17T15:32:50.662Z,7.80
2017-11-17T15:35:17.670Z,7.60
2017-11-17T15:37:43.854Z,7.50
2017-11-17T15:40:10.094Z,7.60
2017-11-17T15:42:36.310Z,7.50
2017-11-17T15:45:02.535Z,7.40
2017-11-17T15:47:28.786Z,7.30
2017-11-17T15:49:55.118Z,7.20
2017-11-17T15:52:21.356Z,7.30
2017-11-17T15:54:47.622Z,7.20
2017-11-17T16:00:44.445Z,6.70
2017-11-17T16:03:25.573Z,6.50
2017-11-17T16:05:52.532Z,6.10
2017-11-17T16:08:18.738Z,6.10
2017-11-17T16:10:45.116Z,6.00
2017-11-17T16:13:11.318Z,6.00
2017-11-17T16:15:37.546Z,5.90
2017-11-17T16:18:03.754Z,5.80
2017-11-17T16:20:30.730Z,5.70
2017-11-17T16:22:56.926Z,5.70
2017-11-17T16:25:23.153Z,5.70
2017-11-17T16:27:49.417Z,5.60
2017-11-17T16:30:15.687Z,5.60
2017-11-17T16:32:41.915Z,5.60
2017-11-17T16:35:08.326Z,5.60
2017-11-17T16:37:34.693Z,5.60
2017-11-17T16:40:00.981Z,5.60
2017-11-17T16:42:27.284Z,5.60
2017-11-17T16:44:53.539Z,5.60
2017-11-17T16:47:19.775Z,5.60
2017-11-17T16:49:46.046Z,5.60
2017-11-17T16:52:12.248Z,5.60
2017-11-17T16:54:38.478Z,5.60
2017-11-17T16:57:04.696Z,5.60
2017-11-17T16:59:30.942Z,5.60
2017-11-17T17:01:57.173Z,5.70
2017-11-17T17:04:23.419Z,5.80
2017-11-17T17:06:50.449Z,5.70
2017-11-17T17:09:16.854Z,5.70
2017-11-17T17:11:43.167Z,5.70
2017-11-17T17:14:09.359Z,5.60
2017-11-17T17:16:36.531Z,5.60
2017-11-17T17:19:02.791Z,5.60
2017-11-17T17:21:29.088Z,5.60
2017-11-17T17:23:55.323Z,5.60
2017-11-17T17:26:21.566Z,5.60
2017-11-17T17:28:47.872Z,5.60
2017-11-17T17:31:14.145Z,5.60
2017-11-17T17:33:40.428Z,5.60
2017-11-17T17:36:06.701Z,5.60
2017-11-17T17:38:34.627Z,5.40
2017-11-17T17:41:00.874Z,5.30
2017-11-17T17:43:27.898Z,5.30
2017-11-17T17:45:55.033Z,5.10
2017-11-17T17:48:21.740Z,5.10
2017-11-17T17:50:47.956Z,5.10
2017-11-17T17:53:14.157Z,4.90
2017-11-17T17:55:40.390Z,4.90
2017-11-17T17:58:06.570Z,4.80
2017-11-17T18:00:32.803Z,4.70
2017-11-17T18:02:59.018Z,4.60
2017-11-17T18:05:26.003Z,4.60
2017-11-17T18:07:52.930Z,4.50
2017-11-17T18:10:19.165Z,4.50
2017-11-17T18:12:46.103Z,4.50
2017-11-17T18:15:12.313Z,4.50
2017-11-17T18:17:38.502Z,4.50
2017-11-17T18:20:04.709Z,4.50
2017-11-17T18:22:30.922Z,4.40
2017-11-17T18:24:57.871Z,4.40
2017-11-17T18:27:24.802Z,4.40
2017-11-17T18:29:51.009Z,4.40
2017-11-17T18:32:17.207Z,4.30
2017-11-17T18:34:43.486Z,4.30
2017-11-17T18:37:09.654Z,4.20
2017-11-17T18:39:35.870Z,4.20
2017-11-17T18:42:02.067Z,4.20
2017-11-17T18:44:28.328Z,4.20
2017-11-17T18:46:55.283Z,4.20
2017-11-17T18:49:22.223Z,4.20
2017-11-17T18:51:48.411Z,4.20
2017-11-17T18:54:14.645Z,4.20
2017-11-17T18:56:40.869Z,4.20
2017-11-17T18:59:07.074Z,4.20
2017-11-17T19:01:33.300Z,4.10
2017-11-17T19:03:59.491Z,4.10
2017-11-17T19:06:25.697Z,4.10
2017-11-17T19:08:52.671Z,3.90
2017-11-17T19:11:18.882Z,3.90
2017-11-17T19:13:45.818Z,3.90
2017-11-17T19:16:12.774Z,4.00
2017-11-17T19:18:39.722Z,4.00
2017-11-17T19:21:05.906Z,4.00
2017-11-17T19:23:32.115Z,4.00
2017-11-17T19:25:58.298Z,4.00
2017-11-17T19:28:24.546Z,4.00
2017-11-17T19:30:50.737Z,3.90
2017-11-17T19:33:17.691Z,4.00
2017-11-17T19:35:44.642Z,3.90
2017-11-17T19:38:11.598Z,3.90
2017-11-17T19:40:38.523Z,4.00
2017-11-17T19:43:05.474Z,4.00
2017-11-17T19:45:32.414Z,4.00
2017-11-17T19:47:59.378Z,4.00
2017-11-17T19:50:25.578Z,4.00
2017-11-17T19:52:51.782Z,4.00
2017-11-17T19:55:17.971Z,4.00
2017-11-17T19:57:44.185Z,4.00
2017-11-17T20:00:10.427Z,4.00
2017-11-17T20:02:36.636Z,3.90
2017-11-17T20:05:02.834Z,4.00
2017-11-17T20:07:29.030Z,4.00
2017-11-17T20:09:55.239Z,3.90
2017-11-17T20:12:21.453Z,3.90
2017-11-17T20:14:47.679Z,4.00
2017-11-17T20:17:13.881Z,4.00
2017-11-17T20:19:40.062Z,3.90
2017-11-17T20:22:06.293Z,3.90
2017-11-17T20:24:32.470Z,3.90
2017-11-17T20:26:59.451Z,4.00
2017-11-17T20:29:25.630Z,3.90
2017-11-17T20:31:51.842Z,4.00
2017-11-17T20:34:18.046Z,3.90
2017-11-17T20:36:44.252Z,4.00
2017-11-17T20:39:10.476Z,4.00
2017-11-17T20:41:38.222Z,4.00
2017-11-17T20:44:05.135Z,4.00
2017-11-17T20:46:32.099Z,4.00
2017-11-17T20:48:58.274Z,4.00
2017-11-17T20:51:24.455Z,4.00
2017-11-17T20:53:50.664Z,4.10
2017-11-17T20:56:16.889Z,4.10
2017-11-17T20:58:43.079Z,4.10
2017-11-17T21:01:09.281Z,4.00
2017-11-17T21:03:36.198Z,4.10
2017-11-17T21:08:53.731Z,4.00
2017-11-17T21:11:19.934Z,4.00
2017-11-17T21:13:46.112Z,4.00
2017-11-17T21:16:13.057Z,4.00
2017-11-17T21:18:39.984Z,4.10
2017-11-17T21:21:06.205Z,4.10
2017-11-17T21:23:32.398Z,4.20
2017-11-17T21:25:58.595Z,4.20
2017-11-17T21:28:25.527Z,4.20
2017-11-17T21:30:51.738Z,4.20
2017-11-17T21:33:17.943Z,4.30
2017-11-17T21:35:44.187Z,4.20
2017-11-17T21:38:10.367Z,4.30
2017-11-17T21:40:36.580Z,4.20
2017-11-17T21:43:03.503Z,4.30
2017-11-17T21:45:29.710Z,4.30
2017-11-17T21:47:55.887Z,4.30
2017-11-17T21:50:22.098Z,4.40
2017-11-17T21:52:49.019Z,4.50
2017-11-17T21:55:15.238Z,4.50
2017-11-17T21:57:41.430Z,4.60
2017-11-17T22:00:07.650Z,4.60
2017-11-17T22:02:33.838Z,4.60
2017-11-17T22:05:00.059Z,4.60
2017-11-17T22:07:26.241Z,4.60
2017-11-17T22:09:52.443Z,4.60
2017-11-17T22:12:19.444Z,4.60
2017-11-17T22:14:45.645Z,4.60
2017-11-17T22:17:11.830Z,4.50
2017-11-17T22:19:38.083Z,4.50
2017-11-17T22:22:04.301Z,4.50
2017-11-17T22:24:31.222Z,4.50
2017-11-17T22:26:57.436Z,4.50
2017-11-17T22:29:23.630Z,4.50
2017-11-17T22:31:49.851Z,4.50
2017-11-17T22:34:16.082Z,4.50
2017-11-17T22:36:42.278Z,4.60
2017-11-17T22:39:09.199Z,4.60
2017-11-17T22:41:35.415Z,4.50
2017-11-17T22:44:01.596Z,4.60
2017-11-17T22:46:27.819Z,4.70
2017-11-17T22:48:53.999Z,4.70
2017-11-17T22:51:20.214Z,4.70
2017-11-17T22:53:46.402Z,4.70
2017-11-17T22:56:13.343Z,4.70
2017-11-17T22:58:40.278Z,4.60
2017-11-17T23:01:07.202Z,4.60
2017-11-17T23:03:33.419Z,4.60
2017-11-17T23:05:59.606Z,4.60
2017-11-17T23:08:25.818Z,4.60
2017-11-17T23:10:52.773Z,4.60
2017-11-17T23:13:18.986Z,4.50
2017-11-17T23:15:45.918Z,4.40
2017-11-17T23:18:12.872Z,4.40
2017-11-17T23:20:39.829Z,4.40
2017-11-17T23:23:06.792Z,4.30
2017-11-17T23:25:33.111Z,4.30
2017-11-17T23:27:59.286Z,4.20
2017-11-17T23:30:25.540Z,4.20
2017-11-17T23:32:52.484Z,4.20
2017-11-17T23:35:18.735Z,4.20
2017-11-17T23:37:44.936Z,4.20
2017-11-17T23:40:11.155Z,4.20
2017-11-17T23:42:37.347Z,4.20
2017-11-17T23:45:03.634Z,4.20
2017-11-17T23:47:30.559Z,4.00
2017-11-17T23:49:56.786Z,4.00
2017-11-17T23:52:22.990Z,4.00
2017-11-17T23:54:49.202Z,4.00
2017-11-17T23:57:15.403Z,4.10
2017-11-17T23:59:41.627Z,4.10
